Time;durP1;ratioP1;P1;durP2;ratioP2;P2;SDS_P1;SDS_P2;PMS_P1;PMS_P2;Temp;Humidity;BMP_temperature;BMP_pressure;BME280_temperature;BME280_humidity;BME280_pressure;Samples;Min_cycle;Max_cycle;Signal;HPM_P1;HPM_P2
2023/08/20 00:03:23;;;;;;;12.30;7.57;;;17.90;99.90;;;;;;7274967;32;20617;-56
2023/08/20 00:07:25;;;;;;;14.77;8.02;;;17.90;99.90;;;;;;7271854;32;20119;-55
2023/08/20 00:11:26;;;;;;;13.10;7.32;;;17.90;99.90;;;;;;7269830;32;20167;-57
2023/08/20 00:15:28;;;;;;;16.27;7.97;;;17.90;99.90;;;;;;7271104;32;20200;-56
2023/08/20 00:19:30;;;;;;;12.18;8.90;;;17.90;99.90;;;;;;7272388;32;20128;-55
2023/08/20 00:23:32;;;;;;;15.88;9.80;;;18.00;99.90;;;;;;7285405;32;20417;-55
2023/08/20 00:27:34;;;;;;;15.48;10.00;;;18.10;99.90;;;;;;7274936;32;20586;-55
2023/08/20 00:31:36;;;;;;;14.43;9.60;;;18.20;99.90;;;;;;7273048;32;20108;-55
2023/08/20 00:35:38;;;;;;;13.23;9.30;;;18.20;99.90;;;;;;7274213;32;20215;-56
2023/08/20 00:39:40;;;;;;;12.55;9.43;;;18.20;99.90;;;;;;7276131;32;20123;-55
2023/08/20 00:43:41;;;;;;;12.77;7.55;;;18.20;99.90;;;;;;7274145;32;20171;-55
2023/08/20 00:47:44;;;;;;;13.23;7.47;;;18.30;99.90;;;;;;7277217;32;20100;-56
2023/08/20 00:51:45;;;;;;;14.68;8.95;;;18.20;99.90;;;;;;7266840;32;20146;-55
2023/08/20 00:55:47;;;;;;;13.35;8.25;;;18.10;99.90;;;;;;7272606;32;20092;-56
2023/08/20 00:59:50;;;;;;;14.57;8.80;;;18.10;99.90;;;;;;7274407;32;20127;-56
2023/08/20 01:03:55;;;;;;;11.00;7.45;;;18.10;99.90;;;;;;7271501;32;20775;-56
2023/08/20 01:08:38;;;;;;;16.15;7.28;;;18.10;99.90;;;;;;7270070;32;20104;-57
2023/08/20 01:12:43;;;;;;;10.07;7.03;;;18.00;99.90;;;;;;7268415;32;20744;-58
2023/08/20 01:16:46;;;;;;;11.80;7.85;;;17.90;99.90;;;;;;7269912;32;20135;-56
2023/08/20 01:21:02;;;;;;;14.40;7.25;;;17.90;99.90;;;;;;7270478;32;20285;-56
2023/08/20 01:25:36;;;;;;;11.05;6.70;;;17.90;99.90;;;;;;7271737;32;20108;-55
2023/08/20 01:29:39;;;;;;;11.75;7.20;;;17.80;99.90;;;;;;7263794;32;20380;-55
2023/08/20 01:33:41;;;;;;;12.50;7.35;;;17.80;99.90;;;;;;7274419;32;20105;-56
2023/08/20 01:37:43;;;;;;;14.25;7.65;;;17.70;99.90;;;;;;7274932;32;20699;-55
2023/08/20 01:41:46;;;;;;;12.45;7.20;;;17.70;99.90;;;;;;7275994;32;20183;-55
2023/08/20 01:45:48;;;;;;;15.32;7.40;;;17.70;99.90;;;;;;7277111;32;20240;-56
2023/08/20 01:49:49;;;;;;;11.10;7.55;;;17.60;99.90;;;;;;7275256;32;20537;-56
2023/08/20 01:53:51;;;;;;;11.23;8.15;;;17.60;99.90;;;;;;7274227;32;20112;-55
2023/08/20 01:57:53;;;;;;;9.27;7.70;;;17.70;99.90;;;;;;7276088;32;20183;-55
2023/08/20 02:01:55;;;;;;;10.80;6.82;;;17.70;99.90;;;;;;7274454;32;20183;-55
2023/08/20 02:05:56;;;;;;;8.43;6.70;;;17.60;99.90;;;;;;7272614;32;20466;-55
2023/08/20 02:09:58;;;;;;;12.40;7.60;;;17.50;99.90;;;;;;7273102;32;20541;-56
2023/08/20 02:14:00;;;;;;;14.75;7.87;;;17.50;99.90;;;;;;7276053;32;20401;-55
2023/08/20 02:18:02;;;;;;;9.10;7.00;;;17.50;99.90;;;;;;7275304;32;20522;-55
2023/08/20 02:22:04;;;;;;;8.40;6.45;;;17.40;99.90;;;;;;7273845;32;20172;-55
2023/08/20 02:26:06;;;;;;;8.27;6.85;;;17.50;99.90;;;;;;7273428;32;20175;-55
2023/08/20 02:30:08;;;;;;;13.07;7.68;;;17.60;99.90;;;;;;7276769;32;20127;-55
2023/08/20 02:34:10;;;;;;;11.85;7.35;;;17.60;99.90;;;;;;7272461;32;20229;-56
2023/08/20 02:38:11;;;;;;;13.10;7.75;;;17.60;99.90;;;;;;7273752;32;20374;-55
2023/08/20 02:42:13;;;;;;;14.73;7.57;;;17.60;99.90;;;;;;7273680;32;20112;-55
2023/08/20 02:46:15;;;;;;;12.25;6.72;;;17.60;99.90;;;;;;7271634;32;20434;-55
2023/08/20 02:50:17;;;;;;;13.07;6.95;;;17.60;99.90;;;;;;7268236;32;20542;-56
2023/08/20 02:54:18;;;;;;;10.38;7.35;;;17.60;99.90;;;;;;7272399;32;20199;-56
2023/08/20 02:58:20;;;;;;;9.98;7.00;;;17.60;99.90;;;;;;7271516;32;20845;-55
2023/08/20 03:02:22;;;;;;;18.45;7.65;;;17.50;99.90;;;;;;7271398;32;20104;-55
2023/08/20 03:06:24;;;;;;;8.80;6.78;;;17.40;99.90;;;;;;7271288;32;20104;-56
2023/08/20 03:10:29;;;;;;;12.05;6.53;;;17.40;99.90;;;;;;7270608;32;20093;-55
2023/08/20 03:14:31;;;;;;;14.82;6.85;;;17.40;99.90;;;;;;7277706;32;20523;-56
2023/08/20 03:18:33;;;;;;;9.57;7.62;;;17.40;99.90;;;;;;7275119;32;20165;-56
2023/08/20 03:22:37;;;;;;;10.65;6.80;;;17.40;99.90;;;;;;7276903;32;20243;-56
2023/08/20 03:26:39;;;;;;;10.77;7.15;;;17.30;99.90;;;;;;7274368;32;20259;-55
2023/08/20 03:30:40;;;;;;;9.55;7.03;;;17.30;99.90;;;;;;7275514;32;20100;-55
2023/08/20 03:34:42;;;;;;;11.75;7.68;;;17.40;99.90;;;;;;7278293;32;20155;-55
2023/08/20 03:38:44;;;;;;;12.20;8.10;;;17.40;99.90;;;;;;7278134;32;20394;-55
2023/08/20 03:42:46;;;;;;;9.95;7.60;;;17.40;99.90;;;;;;7274080;32;20195;-55
2023/08/20 03:46:47;;;;;;;11.23;7.60;;;17.50;99.90;;;;;;7278656;32;20487;-56
2023/08/20 03:50:49;;;;;;;10.90;7.05;;;17.50;99.90;;;;;;7275997;32;20187;-56
2023/08/20 03:54:51;;;;;;;11.85;7.20;;;17.50;99.90;;;;;;7272391;32;20132;-55
2023/08/20 03:58:53;;;;;;;15.23;7.03;;;17.50;99.90;;;;;;7277350;32;20240;-56
2023/08/20 04:02:54;;;;;;;9.68;6.82;;;17.40;99.90;;;;;;7277835;32;20108;-55
2023/08/20 04:06:56;;;;;;;9.25;6.60;;;17.60;99.90;;;;;;7276392;32;20136;-55
2023/08/20 04:10:58;;;;;;;12.75;7.25;;;17.40;99.90;;;;;;7271512;32;20200;-57
2023/08/20 04:15:00;;;;;;;9.40;7.03;;;17.30;99.90;;;;;;7268000;32;20219;-55
2023/08/20 04:19:02;;;;;;;10.88;6.05;;;17.30;99.90;;;;;;7276280;32;20101;-55
2023/08/20 04:23:04;;;;;;;7.70;6.78;;;17.20;99.90;;;;;;7274611;32;21852;-55
2023/08/20 04:27:06;;;;;;;8.40;6.55;;;17.20;99.90;;;;;;7268529;32;20273;-57
2023/08/20 04:31:08;;;;;;;8.35;6.55;;;17.20;99.90;;;;;;7273962;32;20120;-55
2023/08/20 04:35:10;;;;;;;14.80;6.97;;;17.10;99.90;;;;;;7270374;32;20093;-55
2023/08/20 04:39:11;;;;;;;11.15;6.53;;;17.10;99.90;;;;;;7274442;32;20104;-55
2023/08/20 04:43:14;;;;;;;15.40;6.75;;;17.00;99.90;;;;;;7268928;32;20103;-55
2023/08/20 04:47:16;;;;;;;8.25;6.30;;;17.00;99.90;;;;;;7267469;32;20174;-55
2023/08/20 04:51:17;;;;;;;12.60;7.32;;;17.10;99.90;;;;;;7267445;32;20887;-57
2023/08/20 04:55:19;;;;;;;9.25;6.00;;;17.00;99.90;;;;;;7276918;32;20317;-56
2023/08/20 04:59:21;;;;;;;10.32;6.75;;;17.00;99.90;;;;;;7274025;32;20197;-55
2023/08/20 05:03:23;;;;;;;11.90;7.03;;;17.00;99.90;;;;;;7276831;32;20123;-55
2023/08/20 05:07:24;;;;;;;11.93;7.00;;;17.00;99.90;;;;;;7273834;32;20451;-56
2023/08/20 05:11:26;;;;;;;11.23;6.50;;;17.00;99.90;;;;;;7274635;32;20174;-55
2023/08/20 05:15:28;;;;;;;10.30;6.55;;;17.00;99.90;;;;;;7278663;32;20100;-57
2023/08/20 05:19:30;;;;;;;11.25;6.20;;;17.00;99.90;;;;;;7273092;32;20214;-55
2023/08/20 05:23:31;;;;;;;12.50;6.87;;;17.00;99.90;;;;;;7273580;32;20105;-61
2023/08/20 05:27:33;;;;;;;8.75;5.55;;;17.00;99.90;;;;;;7267929;32;20258;-56
2023/08/20 05:31:38;;;;;;;9.82;6.10;;;17.10;99.90;;;;;;7267156;32;20134;-55
2023/08/20 05:35:40;;;;;;;9.52;6.50;;;17.10;99.90;;;;;;7275253;32;20179;-55
2023/08/20 05:39:43;;;;;;;15.95;6.60;;;17.10;99.90;;;;;;7271471;32;21108;-55
2023/08/20 05:43:45;;;;;;;13.38;7.00;;;17.20;99.90;;;;;;7276088;32;20179;-56
2023/08/20 05:47:47;;;;;;;14.45;10.00;;;17.30;99.90;;;;;;7278483;32;20112;-55
2023/08/20 05:51:48;;;;;;;10.32;8.50;;;17.30;99.90;;;;;;7266339;32;20184;-55
2023/08/20 05:55:50;;;;;;;10.45;8.00;;;17.40;99.90;;;;;;7269617;32;20195;-55
2023/08/20 05:59:52;;;;;;;13.60;8.02;;;17.50;99.90;;;;;;7268770;32;20326;-55
2023/08/20 06:03:54;;;;;;;14.30;7.37;;;17.60;99.90;;;;;;7273056;32;20509;-56
2023/08/20 06:07:55;;;;;;;13.25;8.07;;;17.70;99.90;;;;;;7274605;32;20123;-56
2023/08/20 06:11:57;;;;;;;11.95;7.43;;;17.80;99.90;;;;;;7266515;32;20112;-56
2023/08/20 06:15:59;;;;;;;10.20;7.53;;;17.90;99.90;;;;;;7277289;32;20161;-55
2023/08/20 06:20:00;;;;;;;9.07;7.43;;;18.00;99.90;;;;;;7273325;32;20195;-55
2023/08/20 06:24:03;;;;;;;12.30;9.65;;;18.10;99.90;;;;;;7272653;32;20249;-55
2023/08/20 06:28:04;;;;;;;14.70;11.10;;;18.20;99.90;;;;;;7269588;32;20127;-55
2023/08/20 06:32:06;;;;;;;18.70;12.40;;;18.40;99.90;;;;;;7270453;32;20096;-55
2023/08/20 06:36:08;;;;;;;20.45;14.98;;;18.70;99.90;;;;;;7271297;32;20426;-55
2023/08/20 06:40:10;;;;;;;21.52;13.95;;;18.80;99.90;;;;;;7269088;32;20222;-55
2023/08/20 06:44:12;;;;;;;17.62;13.62;;;19.00;99.90;;;;;;7270458;32;20321;-55
2023/08/20 06:48:14;;;;;;;19.62;13.80;;;19.10;99.90;;;;;;7274447;32;20169;-56
2023/08/20 06:52:16;;;;;;;15.27;11.88;;;19.30;99.90;;;;;;7272581;32;20191;-55
2023/08/20 06:56:18;;;;;;;12.85;10.85;;;19.40;99.90;;;;;;7274082;32;20195;-57
2023/08/20 07:00:19;;;;;;;16.60;12.00;;;19.50;99.90;;;;;;7274025;32;20478;-53
2023/08/20 07:04:21;;;;;;;21.65;14.73;;;19.60;99.90;;;;;;7277472;32;20317;-53
2023/08/20 07:08:23;;;;;;;20.33;14.80;;;19.70;99.90;;;;;;7274252;32;20263;-54
2023/08/20 07:12:25;;;;;;;25.02;19.05;;;19.90;99.90;;;;;;7273471;32;20132;-54
2023/08/20 07:16:26;;;;;;;23.23;16.20;;;20.10;99.90;;;;;;7270347;32;20466;-55
2023/08/20 07:20:28;;;;;;;23.75;17.30;;;20.10;99.90;;;;;;7273555;32;20092;-53
2023/08/20 07:24:34;;;;;;;21.12;14.00;;;20.20;99.90;;;;;;7273135;32;20359;-53
2023/08/20 07:32:56;;;;;;;13.40;10.55;;;20.40;99.90;;;;;;7267059;32;20511;-55
2023/08/20 07:36:58;;;;;;;14.87;12.55;;;20.40;99.90;;;;;;7271309;32;20214;-56
2023/08/20 07:41:00;;;;;;;18.12;13.43;;;20.50;99.90;;;;;;7267603;32;20384;-56
2023/08/20 07:45:02;;;;;;;17.92;10.98;;;20.70;99.90;;;;;;7269339;32;20190;-56
2023/08/20 07:49:04;;;;;;;20.05;13.70;;;20.80;99.90;;;;;;7268038;32;20211;-56
2023/08/20 07:53:05;;;;;;;16.55;13.57;;;21.00;99.90;;;;;;7265130;32;20119;-57
2023/08/20 07:57:07;;;;;;;18.83;14.32;;;21.40;99.90;;;;;;7265045;32;20128;-58
2023/08/20 08:01:09;;;;;;;16.55;10.98;;;21.40;99.90;;;;;;7265040;32;20108;-58
2023/08/20 08:05:10;;;;;;;9.15;8.15;;;21.50;99.90;;;;;;7270370;32;20202;-57
2023/08/20 08:09:27;;;;;;;14.05;8.93;;;21.70;99.90;;;;;;7269968;32;20116;-57
2023/08/20 08:13:29;;;;;;;12.50;9.73;;;21.80;99.90;;;;;;7271432;32;20258;-57
2023/08/20 08:17:31;;;;;;;10.90;8.38;;;21.90;99.90;;;;;;7272295;32;20180;-56
2023/08/20 08:21:32;;;;;;;10.13;8.93;;;21.90;99.90;;;;;;7265412;32;20108;-56
2023/08/20 08:25:34;;;;;;;10.73;8.57;;;22.10;99.90;;;;;;7272382;32;20183;-56
2023/08/20 08:29:36;;;;;;;11.10;8.95;;;22.40;99.90;;;;;;7270096;32;20480;-55
2023/08/20 08:33:37;;;;;;;13.32;9.05;;;22.50;99.90;;;;;;7268653;32;20130;-56
2023/08/20 08:37:39;;;;;;;12.18;7.18;;;22.60;99.90;;;;;;7275669;32;20566;-56
2023/08/20 08:41:42;;;;;;;8.77;5.55;;;23.10;99.90;;;;;;7276593;32;20245;-56
2023/08/20 08:45:50;;;;;;;9.55;6.30;;;23.60;99.90;;;;;;7274846;32;20588;-56
2023/08/20 08:49:54;;;;;;;6.22;4.57;;;24.20;99.90;;;;;;7269236;32;20127;-57
2023/08/20 08:53:56;;;;;;;5.37;3.30;;;24.60;99.90;;;;;;7263722;32;20513;-57
2023/08/20 08:57:58;;;;;;;5.60;3.58;;;25.70;99.90;;;;;;7276870;32;20776;-58
2023/08/20 09:02:00;;;;;;;4.90;2.92;;;27.50;99.90;;;;;;7274418;32;20187;-58
2023/08/20 09:06:08;;;;;;;5.93;3.22;;;28.80;99.90;;;;;;7275207;32;20184;-56
2023/08/20 09:10:10;;;;;;;3.95;2.70;;;31.20;99.90;;;;;;7273984;32;20104;-56
2023/08/20 09:14:29;;;;;;;6.15;2.78;;;31.60;99.90;;;;;;7275326;32;20524;-59
2023/08/20 09:18:31;;;;;;;6.10;2.62;;;32.20;99.90;;;;;;7268388;32;20108;-57
2023/08/20 09:22:34;;;;;;;4.95;2.40;;;32.80;99.90;;;;;;7274015;32;20213;-55
2023/08/20 09:26:36;;;;;;;5.00;3.00;;;32.40;99.90;;;;;;7271830;32;20251;-57
2023/08/20 09:30:40;;;;;;;4.62;2.53;;;31.30;99.90;;;;;;7274194;32;20171;-57
2023/08/20 09:34:42;;;;;;;4.32;3.10;;;30.90;99.90;;;;;;7273791;32;20168;-56
2023/08/20 09:38:43;;;;;;;4.97;3.70;;;30.70;99.90;;;;;;7274887;32;20119;-56
2023/08/20 09:42:47;;;;;;;5.45;3.10;;;30.90;99.90;;;;;;7278776;32;20215;-57
2023/08/20 09:46:48;;;;;;;6.50;3.10;;;29.90;99.90;;;;;;7272312;32;20628;-57
2023/08/20 09:50:56;;;;;;;4.78;3.45;;;28.90;99.90;;;;;;7268416;32;20124;-58
2023/08/20 09:55:02;;;;;;;5.40;3.40;;;27.80;99.90;;;;;;7272713;32;20192;-57
2023/08/20 09:59:04;;;;;;;4.32;3.12;;;27.90;99.90;;;;;;7274478;32;20185;-58
2023/08/20 10:03:06;;;;;;;9.80;4.10;;;28.40;99.90;;;;;;7272189;32;20108;-58
2023/08/20 10:07:10;;;;;;;6.50;3.50;;;28.20;99.90;;;;;;7270130;32;20486;-57
2023/08/20 10:11:12;;;;;;;7.85;3.97;;;27.30;99.90;;;;;;7275936;32;20546;-57
2023/08/20 10:15:15;;;;;;;5.37;4.18;;;27.10;99.90;;;;;;7270573;32;21536;-56
2023/08/20 10:19:17;;;;;;;7.55;4.72;;;26.50;99.90;;;;;;7256330;32;20100;-57
2023/08/20 10:23:25;;;;;;;4.35;3.47;;;27.10;99.90;;;;;;7275768;32;20181;-57
2023/08/20 10:27:31;;;;;;;7.10;4.25;;;27.30;99.90;;;;;;7271279;32;20161;-58
2023/08/20 10:31:33;;;;;;;4.85;4.30;;;27.50;99.90;;;;;;7267495;32;20105;-57
2023/08/20 10:35:37;;;;;;;6.60;3.47;;;27.80;99.90;;;;;;7266561;32;20097;-59
2023/08/20 10:39:42;;;;;;;4.47;3.58;;;28.40;99.90;;;;;;7266545;32;20108;-59
2023/08/20 10:43:48;;;;;;;6.62;4.47;;;28.80;99.90;;;;;;7274075;32;20255;-58
2023/08/20 10:47:50;;;;;;;6.43;3.47;;;29.00;99.90;;;;;;7269170;32;20167;-58
2023/08/20 10:51:53;;;;;;;7.55;4.25;;;29.10;99.90;;;;;;7269928;32;20146;-58
2023/08/20 10:56:07;;;;;;;7.07;5.28;;;28.60;99.90;;;;;;7273047;32;20119;-58
2023/08/20 11:00:15;;;;;;;9.57;5.80;;;27.70;99.90;;;;;;7271970;32;20711;-59
2023/08/20 11:04:23;;;;;;;11.45;7.35;;;27.30;99.90;;;;;;7272372;32;20120;-59
2023/08/20 11:08:24;;;;;;;8.63;6.18;;;27.20;99.90;;;;;;7275654;32;20122;-58
2023/08/20 11:12:29;;;;;;;7.78;6.18;;;27.60;99.90;;;;;;7275243;32;20181;-58
2023/08/20 11:16:31;;;;;;;9.15;6.45;;;27.30;99.90;;;;;;7269112;32;20708;-58
2023/08/20 11:20:33;;;;;;;9.88;7.85;;;27.30;99.90;;;;;;7269144;32;20706;-58
2023/08/20 11:24:38;;;;;;;11.73;6.62;;;27.20;99.90;;;;;;7271237;32;20105;-59
2023/08/20 11:28:46;;;;;;;10.43;7.37;;;27.10;99.90;;;;;;7271937;32;20314;-59
2023/08/20 11:32:50;;;;;;;6.32;5.72;;;27.20;99.90;;;;;;7269315;32;20714;-57
2023/08/20 11:36:52;;;;;;;8.43;5.75;;;27.30;99.90;;;;;;7271734;32;20112;-57
2023/08/20 11:40:54;;;;;;;9.65;8.20;;;27.50;99.90;;;;;;7271956;32;20146;-57
2023/08/20 11:44:57;;;;;;;9.55;8.40;;;27.90;99.90;;;;;;7269368;32;20127;-57
2023/08/20 11:49:04;;;;;;;9.40;7.68;;;28.00;99.90;;;;;;7267902;32;20164;-59
2023/08/20 11:53:06;;;;;;;9.88;7.90;;;28.00;99.90;;;;;;7266961;32;20270;-58
2023/08/20 11:57:07;;;;;;;12.35;8.48;;;27.30;99.90;;;;;;7267911;32;20170;-59
2023/08/20 12:01:09;;;;;;;10.07;7.50;;;27.50;99.90;;;;;;7269321;32;20187;-57
2023/08/20 12:05:12;;;;;;;7.68;6.53;;;27.50;99.90;;;;;;7268709;32;20800;-57
2023/08/20 12:09:24;;;;;;;8.27;6.80;;;27.60;99.90;;;;;;7269064;32;20130;-57
2023/08/20 12:13:25;;;;;;;8.02;5.80;;;27.80;99.90;;;;;;7266511;32;20115;-57
2023/08/20 12:17:27;;;;;;;7.22;5.70;;;28.10;99.90;;;;;;7268572;32;20471;-57
2023/08/20 12:21:29;;;;;;;7.35;5.43;;;28.00;99.90;;;;;;7272413;32;20112;-57
2023/08/20 12:25:33;;;;;;;6.37;5.40;;;28.10;99.90;;;;;;7268981;32;20164;-57
2023/08/20 12:29:35;;;;;;;9.00;5.65;;;28.20;99.90;;;;;;7266408;32;20488;-57
2023/08/20 12:33:37;;;;;;;7.45;5.82;;;28.30;99.90;;;;;;7270185;32;20694;-58
2023/08/20 12:37:39;;;;;;;9.18;5.62;;;28.20;99.90;;;;;;7270252;32;20109;-58
2023/08/20 12:41:41;;;;;;;10.55;5.32;;;28.40;99.90;;;;;;7268324;32;20236;-58
2023/08/20 12:45:42;;;;;;;8.60;5.50;;;28.40;99.90;;;;;;7268566;32;20294;-57
2023/08/20 12:49:44;;;;;;;8.63;5.40;;;28.60;99.90;;;;;;7268887;32;20127;-57
2023/08/20 12:53:46;;;;;;;6.82;5.43;;;28.70;99.90;;;;;;7268479;32;20178;-57
2023/08/20 12:57:55;;;;;;;8.10;5.55;;;28.80;99.90;;;;;;7271272;32;20135;-57
2023/08/20 13:01:58;;;;;;;7.60;4.87;;;28.90;99.90;;;;;;7270536;32;20136;-57
2023/08/20 13:06:00;;;;;;;9.80;6.05;;;28.90;99.90;;;;;;7269672;32;20101;-57
2023/08/20 13:10:02;;;;;;;9.75;5.50;;;28.30;99.90;;;;;;7269304;32;20127;-57
2023/08/20 13:14:04;;;;;;;9.70;5.15;;;28.00;99.90;;;;;;7269727;32;20906;-57
2023/08/20 13:18:07;;;;;;;5.90;4.22;;;27.90;99.90;;;;;;7270019;32;20104;-58
2023/08/20 13:22:09;;;;;;;6.85;4.50;;;28.00;99.90;;;;;;7271947;32;20245;-57
2023/08/20 13:26:11;;;;;;;7.30;4.60;;;27.90;99.90;;;;;;7277706;32;20122;-57
2023/08/20 13:30:13;;;;;;;6.97;4.60;;;28.10;99.90;;;;;;7273793;32;20577;-58
2023/08/20 13:34:15;;;;;;;10.30;4.95;;;27.80;99.90;;;;;;7270670;32;20369;-57
2023/08/20 13:38:16;;;;;;;9.07;5.30;;;27.90;99.90;;;;;;7274609;32;20119;-57
2023/08/20 13:42:18;;;;;;;7.95;4.72;;;28.40;99.90;;;;;;7272512;32;20234;-57
2023/08/20 13:46:22;;;;;;;8.75;6.45;;;28.30;99.90;;;;;;7267414;32;20330;-57
2023/08/20 13:50:24;;;;;;;5.97;4.40;;;28.20;99.90;;;;;;7266750;32;20104;-57
2023/08/20 13:54:26;;;;;;;6.32;4.47;;;27.80;99.90;;;;;;7271445;32;20210;-57
2023/08/20 13:58:28;;;;;;;5.68;4.57;;;27.70;99.90;;;;;;7271597;32;20188;-58
2023/08/20 14:02:30;;;;;;;5.22;4.30;;;28.10;99.90;;;;;;7272204;32;20179;-58
2023/08/20 14:06:31;;;;;;;6.37;4.10;;;28.40;99.90;;;;;;7268455;32;20540;-58
2023/08/20 14:10:33;;;;;;;10.15;4.45;;;28.90;99.90;;;;;;7274806;32;20140;-57
2023/08/20 14:14:35;;;;;;;6.82;4.03;;;29.00;99.90;;;;;;7270700;32;20695;-57
2023/08/20 14:18:36;;;;;;;6.97;4.45;;;28.70;99.90;;;;;;7270064;32;20118;-56
2023/08/20 14:22:38;;;;;;;7.53;4.45;;;28.80;99.90;;;;;;7269460;32;20602;-57
2023/08/20 14:26:41;;;;;;;4.72;3.80;;;28.70;99.90;;;;;;7284940;32;20600;-57
2023/08/20 14:30:42;;;;;;;4.95;3.12;;;28.60;99.90;;;;;;7277155;32;20134;-57
2023/08/20 14:34:44;;;;;;;7.68;3.20;;;28.60;99.90;;;;;;7271083;32;20130;-56
2023/08/20 14:38:46;;;;;;;6.22;3.42;;;28.70;99.90;;;;;;7274796;32;20549;-58
2023/08/20 14:42:48;;;;;;;5.03;3.37;;;28.70;99.90;;;;;;7272037;32;20189;-57
2023/08/20 14:46:49;;;;;;;5.45;3.10;;;28.80;99.90;;;;;;7273210;32;20196;-57
2023/08/20 14:50:51;;;;;;;5.15;3.15;;;29.00;99.90;;;;;;7271170;32;20128;-57
2023/08/20 14:54:53;;;;;;;5.32;2.90;;;29.00;99.90;;;;;;7272982;32;20229;-58
2023/08/20 14:58:55;;;;;;;10.77;3.97;;;28.80;99.90;;;;;;7273856;32;20195;-57
2023/08/20 15:02:57;;;;;;;7.12;3.70;;;28.60;99.90;;;;;;7275905;32;20508;-57
2023/08/20 15:06:59;;;;;;;9.85;3.40;;;28.60;99.90;;;;;;7271445;32;20111;-57
2023/08/20 15:11:03;;;;;;;7.55;3.47;;;28.20;99.90;;;;;;7275873;32;20596;-57
2023/08/20 15:15:08;;;;;;;4.85;2.90;;;28.10;99.90;;;;;;7273739;32;20234;-57
2023/08/20 15:19:10;;;;;;;6.97;3.10;;;27.80;99.90;;;;;;7272264;32;20126;-57
2023/08/20 15:23:11;;;;;;;7.93;3.45;;;27.60;99.90;;;;;;7269812;32;20123;-56
2023/08/20 15:27:13;;;;;;;5.45;3.40;;;27.30;99.90;;;;;;7271645;32;20275;-57
2023/08/20 15:31:15;;;;;;;4.68;3.00;;;27.20;99.90;;;;;;7269260;32;20100;-57
2023/08/20 15:35:17;;;;;;;6.85;2.90;;;27.10;99.90;;;;;;7274004;32;20722;-57
2023/08/20 15:39:19;;;;;;;7.65;3.33;;;27.10;99.90;;;;;;7271370;32;20101;-57
2023/08/20 15:43:21;;;;;;;5.93;2.70;;;27.10;99.90;;;;;;7268334;32;20513;-56
2023/08/20 15:47:22;;;;;;;8.93;3.00;;;27.00;99.90;;;;;;7269912;32;20104;-57
2023/08/20 15:51:25;;;;;;;7.35;3.67;;;26.80;99.90;;;;;;7271068;32;20101;-56
2023/08/20 15:55:26;;;;;;;4.93;2.53;;;26.70;99.90;;;;;;7268746;32;20596;-56
2023/08/20 15:59:28;;;;;;;5.18;2.37;;;26.70;99.90;;;;;;7275009;32;20119;-57
2023/08/20 16:03:30;;;;;;;8.88;2.50;;;26.60;99.90;;;;;;7270775;32;20172;-57
2023/08/20 16:07:32;;;;;;;6.45;2.60;;;26.50;99.90;;;;;;7272185;32;20114;-56
2023/08/20 16:11:33;;;;;;;6.07;2.42;;;26.40;99.90;;;;;;7273623;32;20190;-56
2023/08/20 16:15:36;;;;;;;6.03;2.80;;;26.40;99.90;;;;;;7269323;32;20187;-57
2023/08/20 16:19:37;;;;;;;6.93;2.50;;;26.20;99.90;;;;;;7270562;32;20582;-57
2023/08/20 16:23:39;;;;;;;6.37;2.65;;;26.20;99.90;;;;;;7270930;32;20108;-56
2023/08/20 16:27:41;;;;;;;4.62;2.12;;;26.00;99.90;;;;;;7272461;32;20097;-56
2023/08/20 16:31:43;;;;;;;5.45;2.15;;;25.90;99.90;;;;;;7272224;32;20247;-57
2023/08/20 16:35:48;;;;;;;4.95;2.45;;;25.70;99.90;;;;;;7272463;32;20367;-56
2023/08/20 16:39:50;;;;;;;6.37;2.28;;;25.70;99.90;;;;;;7271731;32;20277;-57
2023/08/20 16:43:52;;;;;;;5.45;2.20;;;25.70;99.90;;;;;;7274790;32;20128;-56
2023/08/20 16:47:53;;;;;;;7.57;2.40;;;25.70;99.90;;;;;;7271966;32;20309;-58
2023/08/20 16:51:55;;;;;;;8.23;2.35;;;25.60;99.90;;;;;;7269718;32;20206;-58
2023/08/20 16:55:57;;;;;;;7.95;2.30;;;25.70;99.90;;;;;;7273076;32;20195;-56
2023/08/20 16:59:58;;;;;;;3.80;2.05;;;25.50;99.90;;;;;;7274589;32;20599;-57
2023/08/20 17:04:01;;;;;;;5.65;2.00;;;25.60;99.90;;;;;;7270268;32;20209;-57
2023/08/20 17:08:03;;;;;;;6.60;2.12;;;25.40;99.90;;;;;;7275674;32;20360;-57
2023/08/20 17:12:05;;;;;;;7.40;1.60;;;25.50;99.90;;;;;;7276335;32;20121;-57
2023/08/20 17:16:07;;;;;;;7.03;1.87;;;25.30;99.90;;;;;;7275067;32;20176;-57
2023/08/20 17:20:09;;;;;;;7.62;2.05;;;25.40;99.90;;;;;;7272199;32;20096;-57
2023/08/20 17:24:11;;;;;;;4.45;1.45;;;25.20;99.90;;;;;;7274080;32;20096;-56
2023/08/20 17:28:13;;;;;;;5.35;1.80;;;25.10;99.90;;;;;;7272269;32;20548;-58
2023/08/20 17:32:15;;;;;;;7.47;1.92;;;25.10;99.90;;;;;;7276702;32;20104;-57
2023/08/20 17:36:17;;;;;;;6.72;1.77;;;25.00;99.90;;;;;;7276362;32;20273;-57
2023/08/20 17:40:18;;;;;;;7.30;1.85;;;25.00;99.90;;;;;;7273442;32;20277;-57
2023/08/20 17:44:20;;;;;;;5.57;1.83;;;24.90;99.90;;;;;;7265074;32;20847;-57
2023/08/20 17:48:22;;;;;;;5.10;1.70;;;24.60;99.90;;;;;;7274240;32;20105;-56
2023/08/20 17:52:24;;;;;;;6.32;2.35;;;24.60;99.90;;;;;;7272820;32;20569;-57
2023/08/20 17:56:26;;;;;;;4.82;1.90;;;24.50;99.90;;;;;;7271775;32;20126;-57
2023/08/20 18:00:28;;;;;;;4.60;1.85;;;24.30;99.90;;;;;;7275398;32;20779;-57
2023/08/20 18:04:30;;;;;;;7.50;2.20;;;24.20;99.90;;;;;;7272677;32;20148;-56
2023/08/20 18:08:32;;;;;;;6.85;1.83;;;23.90;99.90;;;;;;7269327;32;20464;-58
2023/08/20 18:12:33;;;;;;;4.85;1.90;;;23.70;99.90;;;;;;7276584;32;20152;-57
2023/08/20 18:16:35;;;;;;;4.60;1.70;;;23.60;99.90;;;;;;7274263;32;20135;-57
2023/08/20 18:20:37;;;;;;;5.85;2.20;;;23.40;99.90;;;;;;7275098;32;20117;-58
2023/08/20 18:24:39;;;;;;;5.30;2.10;;;23.20;99.90;;;;;;7272115;32;20490;-56
2023/08/20 18:28:41;;;;;;;6.28;1.90;;;23.00;99.90;;;;;;7271172;32;20176;-57
2023/08/20 18:32:43;;;;;;;7.00;2.65;;;22.80;99.90;;;;;;7275413;32;20180;-59
2023/08/20 18:36:45;;;;;;;8.10;2.87;;;22.70;99.90;;;;;;7273885;32;20191;-57
2023/08/20 18:40:47;;;;;;;6.53;2.53;;;22.40;99.90;;;;;;7266351;32;20585;-57
2023/08/20 18:44:49;;;;;;;6.10;2.17;;;22.30;99.90;;;;;;7271052;32;20127;-57
2023/08/20 18:48:50;;;;;;;7.32;2.45;;;22.00;99.90;;;;;;7268884;32;20124;-56
2023/08/20 18:52:52;;;;;;;7.35;2.08;;;22.00;99.90;;;;;;7268149;32;20131;-57
2023/08/20 18:56:54;;;;;;;7.60;2.30;;;21.60;99.90;;;;;;7270307;32;20899;-56
2023/08/20 19:00:56;;;;;;;4.93;1.95;;;21.50;99.90;;;;;;7269730;32;20162;-56
2023/08/20 19:04:57;;;;;;;7.57;2.30;;;21.20;99.90;;;;;;7266319;32;20242;-56
2023/08/20 19:08:59;;;;;;;5.18;2.10;;;21.10;99.90;;;;;;7269699;32;20099;-59
2023/08/20 19:13:01;;;;;;;3.22;1.85;;;20.90;99.90;;;;;;7277385;32;20495;-56
2023/08/20 19:17:02;;;;;;;5.55;1.95;;;20.70;99.90;;;;;;7268644;32;20527;-56
2023/08/20 19:21:04;;;;;;;9.13;2.03;;;20.70;99.90;;;;;;7268290;32;20187;-57
2023/08/20 19:25:07;;;;;;;6.50;2.00;;;20.40;99.90;;;;;;7277976;32;20153;-56
2023/08/20 19:29:09;;;;;;;9.13;2.60;;;20.20;99.90;;;;;;7278336;32;20464;-57
2023/08/20 19:33:12;;;;;;;8.77;2.20;;;20.20;99.90;;;;;;7266488;32;20458;-55
2023/08/20 19:37:14;;;;;;;6.85;2.05;;;20.00;99.90;;;;;;7270476;32;20655;-56
2023/08/20 19:41:16;;;;;;;10.77;2.25;;;19.90;99.90;;;;;;7277446;32;20123;-55
2023/08/20 19:45:17;;;;;;;8.38;2.40;;;19.80;99.90;;;;;;7270908;32;20242;-55
2023/08/20 19:49:19;;;;;;;7.68;2.33;;;19.70;99.90;;;;;;7270954;32;20214;-55
2023/08/20 19:53:21;;;;;;;6.25;2.00;;;19.60;99.90;;;;;;7261614;32;20200;-56
2023/08/20 19:57:23;;;;;;;8.52;1.90;;;19.50;99.90;;;;;;7260662;32;21061;-57
2023/08/20 20:01:24;;;;;;;7.03;2.00;;;19.50;99.90;;;;;;7261781;32;20281;-56
2023/08/20 20:05:29;;;;;;;8.55;2.45;;;19.40;99.90;;;;;;7258897;32;20522;-55
2023/08/20 20:09:31;;;;;;;8.10;2.28;;;19.20;99.90;;;;;;7259435;32;20533;-55
2023/08/20 20:13:33;;;;;;;9.65;2.70;;;19.20;99.90;;;;;;7261972;32;20119;-56
2023/08/20 20:17:36;;;;;;;8.50;2.45;;;19.10;99.90;;;;;;7261283;32;20229;-55
2023/08/20 20:21:39;;;;;;;7.37;2.47;;;19.00;99.90;;;;;;7260486;32;20117;-56
2023/08/20 20:25:41;;;;;;;5.35;2.20;;;18.90;99.90;;;;;;7262490;32;21894;-56
2023/08/20 20:29:43;;;;;;;5.12;2.17;;;19.00;99.90;;;;;;7260043;32;20131;-56
2023/08/20 20:33:44;;;;;;;7.75;2.08;;;18.70;99.90;;;;;;7253890;32;20179;-55
2023/08/20 20:37:46;;;;;;;6.40;2.60;;;18.60;99.90;;;;;;7253166;32;20176;-55
2023/08/20 20:41:48;;;;;;;7.35;2.47;;;18.60;99.90;;;;;;7256269;32;20467;-56
2023/08/20 20:45:51;;;;;;;5.65;2.30;;;18.50;99.90;;;;;;7255895;32;20213;-55
2023/08/20 20:49:53;;;;;;;9.10;2.60;;;18.50;99.90;;;;;;7255323;32;20222;-57
2023/08/20 20:53:55;;;;;;;6.72;2.30;;;18.40;99.90;;;;;;7251538;32;20101;-55
2023/08/20 20:57:57;;;;;;;9.10;2.67;;;18.40;99.90;;;;;;7250931;32;20176;-57
2023/08/20 21:01:59;;;;;;;5.78;2.12;;;18.40;99.90;;;;;;7256666;32;20317;-56